createdAt,value
2024-05-09T00:01:29.907Z,11.07
2024-05-09T00:04:00.174Z,12.68
2024-05-09T00:06:30.314Z,12.10
2024-05-09T00:09:02.577Z,11.63
2024-05-09T00:11:32.975Z,12.07
2024-05-09T00:14:05.880Z,11.07
2024-05-09T00:16:36.194Z,11.27
2024-05-09T00:19:06.554Z,11.07
2024-05-09T00:21:36.844Z,11.18
2024-05-09T00:24:07.176Z,10.68
2024-05-09T00:26:37.392Z,10.05
2024-05-09T00:29:10.626Z,9.80
2024-05-09T00:31:43.423Z,11.77
2024-05-09T00:34:13.771Z,10.68
2024-05-09T00:36:44.460Z,10.95
2024-05-09T00:39:14.839Z,9.48
2024-05-09T00:41:45.705Z,10.23
2024-05-09T00:44:21.044Z,11.70
2024-05-09T00:46:54.631Z,11.35
2024-05-09T00:49:25.287Z,11.32
2024-05-09T00:51:56.907Z,11.70
2024-05-09T00:54:29.843Z,9.82
2024-05-09T00:57:00.165Z,12.13
2024-05-09T00:59:33.531Z,12.52
2024-05-09T01:02:03.993Z,10.90
2024-05-09T01:04:34.210Z,10.95
2024-05-09T01:07:04.381Z,11.82
2024-05-09T01:09:34.559Z,10.82
2024-05-09T01:12:04.793Z,9.95
2024-05-09T01:14:38.645Z,10.02
2024-05-09T01:17:09.773Z,9.07
2024-05-09T01:19:40.122Z,11.73
2024-05-09T01:22:10.918Z,8.88
2024-05-09T01:24:43.690Z,10.90
2024-05-09T01:27:14.426Z,10.63
2024-05-09T01:29:44.732Z,10.57
2024-05-09T01:32:17.343Z,12.90
2024-05-09T01:34:50.103Z,9.73
2024-05-09T01:37:20.296Z,9.65
2024-05-09T01:39:53.173Z,12.13
2024-05-09T01:42:23.414Z,10.60
2024-05-09T01:44:53.687Z,11.30
2024-05-09T01:47:24.007Z,9.65
2024-05-09T01:49:54.361Z,11.15
2024-05-09T01:52:26.836Z,10.40
2024-05-09T01:55:04.624Z,10.15
2024-05-09T01:57:36.503Z,11.90
2024-05-09T02:00:08.125Z,9.45
2024-05-09T02:02:40.938Z,9.98
2024-05-09T02:05:13.779Z,10.52
2024-05-09T02:07:44.255Z,10.23
2024-05-09T02:10:23.464Z,11.23
2024-05-09T02:13:00.452Z,11.95
2024-05-09T02:15:30.767Z,11.35
2024-05-09T02:18:01.129Z,11.18
2024-05-09T02:20:36.326Z,8.15
2024-05-09T02:23:08.238Z,8.52
2024-05-09T02:25:41.707Z,9.50
2024-05-09T02:28:12.093Z,10.20
2024-05-09T02:30:42.779Z,8.52
2024-05-09T02:33:14.428Z,10.35
2024-05-09T02:35:43.839Z,9.27
2024-05-09T02:38:14.731Z,10.75
2024-05-09T02:40:45.043Z,9.52
2024-05-09T02:43:18.169Z,11.48
2024-05-09T02:45:45.727Z,11.18
2024-05-09T02:48:16.433Z,9.35
2024-05-09T02:50:44.541Z,10.73
2024-05-09T02:53:19.721Z,10.88
2024-05-09T02:55:50.179Z,10.50
2024-05-09T02:58:24.888Z,9.27
2024-05-09T03:00:52.633Z,10.70
2024-05-09T03:03:23.142Z,9.65
2024-05-09T03:05:50.993Z,10.63
2024-05-09T03:08:21.379Z,8.88
2024-05-09T03:10:51.590Z,9.85
2024-05-09T03:13:28.504Z,9.02
2024-05-09T03:15:56.142Z,9.15
2024-05-09T03:18:26.347Z,10.55
2024-05-09T03:20:56.275Z,11.50
2024-05-09T03:23:26.778Z,10.35
2024-05-09T03:25:57.221Z,9.82
2024-05-09T03:28:27.438Z,9.68
2024-05-09T03:30:55.028Z,9.30
2024-05-09T03:33:25.601Z,10.07
2024-05-09T03:35:55.686Z,8.55
2024-05-09T03:38:25.897Z,8.23
2024-05-09T03:40:56.081Z,9.07
2024-05-09T03:43:26.314Z,10.73
2024-05-09T03:45:56.785Z,9.73
2024-05-09T03:48:27.126Z,10.20
2024-05-09T03:50:57.423Z,10.30
2024-05-09T03:53:27.560Z,10.02
2024-05-09T03:55:58.095Z,9.52
2024-05-09T03:58:28.264Z,10.95
2024-05-09T04:00:58.457Z,10.63
2024-05-09T04:03:26.204Z,9.90
2024-05-09T04:05:58.952Z,10.95
2024-05-09T04:08:26.601Z,11.75
2024-05-09T04:10:56.827Z,11.27
2024-05-09T04:13:24.418Z,11.77
2024-05-09T04:15:59.651Z,11.50
2024-05-09T04:18:27.282Z,12.93
2024-05-09T04:20:57.634Z,12.60
2024-05-09T04:23:25.264Z,15.02
2024-05-09T04:25:55.542Z,14.45
2024-05-09T04:28:23.912Z,12.88
2024-05-09T04:30:56.754Z,12.35
2024-05-09T04:33:24.523Z,15.93
2024-05-09T04:36:00.215Z,13.35
2024-05-09T04:38:29.642Z,13.45
2024-05-09T04:41:00.054Z,13.02
2024-05-09T04:43:27.651Z,14.90
2024-05-09T04:46:00.441Z,14.48
2024-05-09T04:48:28.566Z,15.07
2024-05-09T04:50:59.044Z,17.10
2024-05-09T04:53:29.532Z,15.88
2024-05-09T04:55:59.822Z,14.73
2024-05-09T04:58:29.719Z,16.33
2024-05-09T05:01:02.562Z,14.38
2024-05-09T05:03:30.489Z,15.70
2024-05-09T05:06:03.348Z,15.57
2024-05-09T05:08:31.424Z,13.60
2024-05-09T05:11:01.801Z,14.20
2024-05-09T05:13:31.792Z,17.23
2024-05-09T05:16:09.220Z,15.40
2024-05-09T05:18:36.867Z,14.95
2024-05-09T05:21:09.701Z,15.07
2024-05-09T05:23:37.326Z,14.75
2024-05-09T05:26:08.654Z,14.75
2024-05-09T05:28:36.237Z,13.68
2024-05-09T05:31:09.005Z,17.10
2024-05-09T05:33:36.755Z,19.85
2024-05-09T05:36:07.231Z,16.92
2024-05-09T05:38:37.152Z,16.15
2024-05-09T05:41:09.951Z,16.48
2024-05-09T05:43:38.609Z,16.38
2024-05-09T05:46:12.173Z,15.65
2024-05-09T05:48:39.844Z,17.10
2024-05-09T05:51:10.764Z,15.40
2024-05-09T05:53:38.517Z,15.07
2024-05-09T05:56:09.101Z,16.67
2024-05-09T05:58:36.668Z,13.88
2024-05-09T06:01:11.146Z,14.15
2024-05-09T06:03:39.376Z,14.43
2024-05-09T06:06:12.298Z,15.82
2024-05-09T06:08:42.436Z,15.05
2024-05-09T06:11:12.974Z,16.13
2024-05-09T06:13:43.225Z,14.45
2024-05-09T06:16:16.034Z,15.07
2024-05-09T06:18:43.844Z,13.43
2024-05-09T06:21:14.762Z,12.70
2024-05-09T06:23:45.926Z,12.40
2024-05-09T06:26:17.429Z,13.63
2024-05-09T06:28:45.027Z,12.75
2024-05-09T06:31:18.026Z,11.98
2024-05-09T06:33:45.938Z,11.30
2024-05-09T06:36:16.817Z,9.90
2024-05-09T06:38:46.829Z,10.82
2024-05-09T06:41:17.289Z,10.18
2024-05-09T06:43:51.668Z,11.20
2024-05-09T06:46:26.823Z,9.40
2024-05-09T06:49:00.457Z,11.73
2024-05-09T06:51:30.896Z,9.93
2024-05-09T06:53:58.480Z,10.75
2024-05-09T06:56:28.820Z,10.20
2024-05-09T06:58:56.582Z,10.07
2024-05-09T07:01:29.451Z,10.98
2024-05-09T07:03:57.218Z,11.05
2024-05-09T07:06:27.651Z,10.25
2024-05-09T07:08:57.591Z,7.82
2024-05-09T07:11:27.970Z,10.48
2024-05-09T07:13:55.758Z,12.00
2024-05-09T07:16:28.612Z,7.90
2024-05-09T07:18:56.455Z,8.82
2024-05-09T07:21:26.788Z,8.85
2024-05-09T07:23:54.455Z,8.75
2024-05-09T07:26:24.939Z,9.02
2024-05-09T07:28:52.601Z,8.77
2024-05-09T07:31:23.466Z,9.27
2024-05-09T07:33:54.001Z,7.72
2024-05-09T07:36:24.318Z,7.35
2024-05-09T07:38:52.049Z,9.00
2024-05-09T07:41:23.048Z,7.53
2024-05-09T07:43:50.693Z,9.00
2024-05-09T07:47:14.630Z,8.20
2024-05-09T07:50:53.488Z,8.02
2024-05-09T07:53:27.097Z,9.82
2024-05-09T07:54:51.247Z,9.90
2024-05-09T07:57:21.725Z,9.32
2024-05-09T07:59:49.362Z,7.70
2024-05-09T08:02:19.557Z,8.60
2024-05-09T08:04:49.973Z,9.88
2024-05-09T08:07:20.430Z,8.07
2024-05-09T08:09:48.155Z,7.82
2024-05-09T08:12:22.913Z,7.88
2024-05-09T08:14:53.019Z,7.82
2024-05-09T08:17:27.794Z,8.93
2024-05-09T08:19:58.219Z,9.00
2024-05-09T08:22:32.042Z,7.47
2024-05-09T08:24:59.892Z,7.68
2024-05-09T08:27:30.927Z,7.70
2024-05-09T08:29:58.563Z,9.02
2024-05-09T08:32:32.235Z,9.15
2024-05-09T08:35:02.575Z,9.80
2024-05-09T08:37:37.803Z,8.68
2024-05-09T08:40:11.131Z,7.85
2024-05-09T08:42:48.364Z,6.88
2024-05-09T08:45:15.978Z,7.38
2024-05-09T08:47:48.907Z,10.35
2024-05-09T08:50:28.954Z,7.85
2024-05-09T08:53:06.379Z,7.32
2024-05-09T08:55:34.133Z,8.32
2024-05-09T08:58:04.838Z,8.43
2024-05-09T09:00:37.331Z,7.95
2024-05-09T09:03:09.331Z,10.45
2024-05-09T09:05:42.729Z,10.20
2024-05-09T09:08:12.985Z,8.82
2024-05-09T09:10:42.029Z,10.60
2024-05-09T09:13:12.605Z,11.40
2024-05-09T09:15:49.677Z,8.40
2024-05-09T09:18:22.825Z,10.70
2024-05-09T09:20:53.040Z,10.48
2024-05-09T09:23:32.410Z,8.65
2024-05-09T09:26:00.126Z,10.00
2024-05-09T09:28:30.397Z,9.82
2024-05-09T09:31:02.028Z,7.78
2024-05-09T09:33:33.116Z,8.05
2024-05-09T09:36:04.987Z,7.93
2024-05-09T09:38:38.726Z,8.75
2024-05-09T09:41:07.697Z,8.80
2024-05-09T09:43:39.410Z,8.85
2024-05-09T09:46:09.660Z,10.32
2024-05-09T09:48:43.519Z,9.55
2024-05-09T09:51:18.911Z,9.13
2024-05-09T09:53:49.455Z,9.10
2024-05-09T09:56:18.186Z,11.82
2024-05-09T09:58:51.363Z,7.85
2024-05-09T10:01:19.128Z,9.00
2024-05-09T10:03:49.516Z,10.25
2024-05-09T10:06:20.265Z,9.55
2024-05-09T10:08:53.018Z,11.18
2024-05-09T10:11:21.411Z,10.27
2024-05-09T10:13:54.973Z,9.32
2024-05-09T10:16:23.178Z,10.32
2024-05-09T10:18:55.952Z,11.18
2024-05-09T10:21:27.021Z,8.80
2024-05-09T10:24:02.893Z,10.23
2024-05-09T10:26:31.934Z,11.32
2024-05-09T10:29:03.306Z,9.48
2024-05-09T10:31:31.018Z,11.23
2024-05-09T10:34:04.375Z,9.73
2024-05-09T10:36:42.902Z,9.40
2024-05-09T10:39:13.730Z,10.30
2024-05-09T10:41:41.858Z,10.38
2024-05-09T10:44:16.281Z,10.02
2024-05-09T10:46:44.223Z,11.25
2024-05-09T10:49:18.475Z,12.48
2024-05-09T10:51:49.273Z,11.73
2024-05-09T10:54:19.384Z,11.82
2024-05-09T10:56:46.945Z,10.23
2024-05-09T10:59:17.256Z,12.48
2024-05-09T11:01:45.076Z,10.98
2024-05-09T11:04:15.810Z,11.90
2024-05-09T11:06:45.952Z,12.55
2024-05-09T11:09:18.908Z,11.32
2024-05-09T11:11:46.734Z,12.05
2024-05-09T11:14:17.345Z,10.40
2024-05-09T11:16:44.927Z,11.65
2024-05-09T11:19:19.728Z,13.20
2024-05-09T11:21:51.643Z,12.07
2024-05-09T11:24:24.680Z,11.73
2024-05-09T11:26:52.223Z,11.27
2024-05-09T11:29:22.364Z,14.25
2024-05-09T11:31:50.426Z,11.63
2024-05-09T11:34:23.262Z,12.15
2024-05-09T11:36:51.074Z,12.45
2024-05-09T11:39:21.230Z,15.85
2024-05-09T11:41:54.081Z,14.60
2024-05-09T11:44:21.703Z,16.13
2024-05-09T11:46:51.921Z,17.38
2024-05-09T11:49:19.580Z,17.63
2024-05-09T11:51:50.010Z,15.30
2024-05-09T11:54:17.640Z,16.38
2024-05-09T11:56:47.926Z,16.13
2024-05-09T11:59:18.230Z,16.23
2024-05-09T12:01:50.859Z,18.08
2024-05-09T12:04:21.123Z,15.65
2024-05-09T12:06:51.519Z,16.98
2024-05-09T12:09:21.604Z,17.50
2024-05-09T12:11:51.940Z,15.63
2024-05-09T12:14:22.271Z,17.08
2024-05-09T12:16:52.497Z,17.35
2024-05-09T12:19:20.127Z,19.65
2024-05-09T12:21:50.431Z,18.33
2024-05-09T12:24:18.811Z,18.67
2024-05-09T12:26:49.221Z,15.85
2024-05-09T12:29:19.036Z,23.75
2024-05-09T12:31:51.887Z,17.77
2024-05-09T12:34:19.589Z,15.55
2024-05-09T12:36:49.903Z,16.05
2024-05-09T12:39:22.047Z,22.25
2024-05-09T12:41:58.436Z,18.27
2024-05-09T12:44:25.993Z,20.83
2024-05-09T12:46:58.827Z,20.35
2024-05-09T12:49:26.649Z,20.25
2024-05-09T12:51:56.929Z,21.63
2024-05-09T12:54:24.475Z,20.90
2024-05-09T12:56:54.700Z,17.10
2024-05-09T12:59:24.663Z,20.83
2024-05-09T13:01:57.232Z,19.38
2024-05-09T13:04:28.358Z,17.85
2024-05-09T13:06:58.643Z,17.33
2024-05-09T13:09:28.766Z,17.77
2024-05-09T13:11:59.160Z,18.90
2024-05-09T13:14:29.194Z,17.88
2024-05-09T13:16:59.595Z,18.85
2024-05-09T13:19:29.831Z,17.58
2024-05-09T13:22:00.191Z,17.08
2024-05-09T13:24:28.058Z,21.38
2024-05-09T13:26:58.299Z,17.90
2024-05-09T13:29:26.056Z,16.15
2024-05-09T13:31:56.223Z,17.95
2024-05-09T13:34:23.821Z,19.15
2024-05-09T13:36:57.007Z,19.20
2024-05-09T13:39:24.622Z,20.05
2024-05-09T13:41:54.819Z,21.35
2024-05-09T13:44:24.793Z,19.73
2024-05-09T13:46:55.079Z,21.27
2024-05-09T13:49:22.754Z,18.38
2024-05-09T13:51:53.090Z,18.17
2024-05-09T13:54:23.272Z,19.98
2024-05-09T13:56:54.125Z,17.85
2024-05-09T13:59:21.852Z,19.05
2024-05-09T14:01:52.391Z,23.75
2024-05-09T14:04:22.560Z,20.52
2024-05-09T14:06:53.295Z,22.95
2024-05-09T14:09:23.584Z,16.60
2024-05-09T14:11:53.845Z,20.55
2024-05-09T14:14:21.608Z,20.38
2024-05-09T14:16:51.974Z,22.42
2024-05-09T14:19:19.742Z,21.13
2024-05-09T14:21:50.147Z,21.38
2024-05-09T14:24:20.203Z,20.55
2024-05-09T14:26:53.101Z,23.10
2024-05-09T14:29:20.749Z,22.35
2024-05-09T14:31:50.908Z,21.95
2024-05-09T14:34:18.735Z,19.88
2024-05-09T14:36:49.212Z,19.48
2024-05-09T14:39:16.832Z,17.85
2024-05-09T14:41:47.144Z,23.70
2024-05-09T14:44:17.535Z,23.85
2024-05-09T14:46:47.838Z,20.15
2024-05-09T14:49:15.803Z,17.85
2024-05-09T14:51:47.571Z,23.58
2024-05-09T14:54:16.188Z,20.45
2024-05-09T14:56:46.469Z,20.50
2024-05-09T14:59:14.027Z,21.15
2024-05-09T15:01:46.890Z,24.65
2024-05-09T15:04:19.463Z,22.63
2024-05-09T15:06:50.352Z,22.38
2024-05-09T15:09:18.089Z,20.33
2024-05-09T15:11:48.260Z,20.10
2024-05-09T15:14:16.012Z,22.73
2024-05-09T15:16:49.195Z,19.02
2024-05-09T15:19:17.059Z,18.80
2024-05-09T15:21:47.516Z,16.60
2024-05-09T15:24:15.159Z,22.67
2024-05-09T15:26:47.862Z,18.08
2024-05-09T15:29:15.642Z,16.80
2024-05-09T15:31:45.837Z,19.08
2024-05-09T15:34:18.407Z,16.40
2024-05-09T15:36:51.412Z,15.02
2024-05-09T15:39:19.450Z,15.30
2024-05-09T15:41:51.540Z,15.35
2024-05-09T15:44:19.793Z,15.02
2024-05-09T15:46:50.116Z,17.23
2024-05-09T15:49:20.520Z,17.48
2024-05-09T15:51:53.150Z,20.25
2024-05-09T15:54:22.148Z,19.15
2024-05-09T15:56:55.034Z,17.67
2024-05-09T15:59:22.620Z,15.35
2024-05-09T16:01:53.023Z,15.18
2024-05-09T16:04:23.461Z,17.35
2024-05-09T16:06:54.730Z,18.38
2024-05-09T16:09:22.631Z,15.50
2024-05-09T16:11:52.879Z,17.10
2024-05-09T16:14:20.526Z,15.98
2024-05-09T16:16:50.811Z,17.27
2024-05-09T16:19:18.573Z,15.63
2024-05-09T16:21:51.531Z,15.68
2024-05-09T16:24:19.134Z,17.02
2024-05-09T16:26:49.372Z,14.90
2024-05-09T16:29:17.342Z,14.77
2024-05-09T16:31:47.584Z,15.07
2024-05-09T16:34:15.417Z,15.35
2024-05-09T16:36:46.439Z,17.13
2024-05-09T16:39:16.727Z,16.42
2024-05-09T16:41:47.007Z,14.90
2024-05-09T16:44:14.670Z,18.13
2024-05-09T16:46:45.910Z,17.83
2024-05-09T16:49:13.569Z,16.80
2024-05-09T16:51:44.000Z,13.00
2024-05-09T16:54:14.193Z,13.52
2024-05-09T16:56:51.670Z,14.63
2024-05-09T16:59:22.660Z,12.90
2024-05-09T17:01:53.547Z,14.65
2024-05-09T17:04:21.428Z,14.88
2024-05-09T17:06:51.905Z,13.65
2024-05-09T17:09:22.083Z,13.52
2024-05-09T17:11:55.177Z,16.25
2024-05-09T17:14:25.559Z,19.15
2024-05-09T17:16:56.131Z,19.45
2024-05-09T17:19:23.795Z,17.80
2024-05-09T17:21:54.476Z,16.00
2024-05-09T17:24:22.214Z,15.48
2024-05-09T17:26:55.553Z,16.40
2024-05-09T17:29:23.561Z,16.25
2024-05-09T17:31:56.673Z,17.02
2024-05-09T17:34:25.158Z,16.73
2024-05-09T17:37:00.827Z,13.93
2024-05-09T17:39:28.599Z,14.55
2024-05-09T17:42:01.408Z,13.85
2024-05-09T17:44:28.983Z,15.55
2024-05-09T17:46:59.373Z,12.68
2024-05-09T17:49:27.080Z,14.23
2024-05-09T17:51:57.716Z,12.90
2024-05-09T17:54:27.718Z,13.55
2024-05-09T17:56:58.505Z,15.88
2024-05-09T17:59:29.301Z,13.18
2024-05-09T18:01:59.697Z,15.27
2024-05-09T18:04:29.072Z,15.13
2024-05-09T18:07:01.433Z,14.60
2024-05-09T18:09:29.160Z,11.88
2024-05-09T18:12:00.159Z,11.55
2024-05-09T18:14:30.625Z,10.55
2024-05-09T18:17:00.940Z,14.05
2024-05-09T18:19:28.803Z,12.77
2024-05-09T18:21:59.202Z,11.40
2024-05-09T18:24:27.572Z,13.55
2024-05-09T18:26:57.876Z,14.95
2024-05-09T18:29:25.637Z,13.82
2024-05-09T18:31:58.599Z,11.73
2024-05-09T18:34:26.366Z,13.57
2024-05-09T18:36:56.886Z,12.38
2024-05-09T18:39:24.704Z,12.88
2024-05-09T18:41:55.239Z,12.75
2024-05-09T18:44:22.764Z,11.85
2024-05-09T18:46:52.953Z,10.95
2024-05-09T18:49:24.025Z,11.85
2024-05-09T18:51:54.356Z,10.52
2024-05-09T18:54:22.100Z,11.10
2024-05-09T18:56:52.224Z,12.52
2024-05-09T18:59:20.028Z,16.13
2024-05-09T19:01:50.586Z,10.70
2024-05-09T19:04:22.968Z,13.02
2024-05-09T19:06:56.089Z,9.38
2024-05-09T19:09:23.909Z,10.93
2024-05-09T19:11:54.210Z,9.55
2024-05-09T19:14:21.781Z,10.50
2024-05-09T19:16:52.597Z,10.50
2024-05-09T19:19:20.563Z,11.82
2024-05-09T19:21:51.095Z,9.40
2024-05-09T19:24:25.600Z,9.43
2024-05-09T19:26:56.955Z,12.10
2024-05-09T19:29:24.539Z,11.32
2024-05-09T19:31:57.196Z,10.75
2024-05-09T19:34:24.986Z,12.52
2024-05-09T19:36:55.253Z,13.60
2024-05-09T19:39:25.441Z,12.20
2024-05-09T19:42:00.012Z,12.43
2024-05-09T19:44:27.536Z,10.88
2024-05-09T19:47:00.262Z,12.38
2024-05-09T19:49:30.723Z,13.27
2024-05-09T19:52:03.512Z,11.88
2024-05-09T19:54:33.796Z,13.30
2024-05-09T19:57:06.496Z,15.45
2024-05-09T19:59:34.077Z,15.65
2024-05-09T20:02:04.629Z,15.25
2024-05-09T20:04:32.777Z,14.80
2024-05-09T20:07:03.226Z,17.02
2024-05-09T20:09:33.571Z,15.65
2024-05-09T20:12:04.053Z,13.70
2024-05-09T20:14:31.814Z,14.52
2024-05-09T20:17:02.037Z,17.48
2024-05-09T20:19:29.848Z,13.63
2024-05-09T20:22:00.160Z,16.50
2024-05-09T20:24:27.782Z,17.30
2024-05-09T20:27:03.109Z,16.92
2024-05-09T20:29:33.040Z,21.20
2024-05-09T20:32:03.396Z,16.73
2024-05-09T20:34:31.127Z,18.52
2024-05-09T20:37:01.513Z,21.85
2024-05-09T20:39:29.344Z,23.95
2024-05-09T20:42:02.211Z,24.50
2024-05-09T20:44:29.926Z,23.38
2024-05-09T20:47:00.416Z,22.58
2024-05-09T20:49:28.400Z,25.20
2024-05-09T20:51:58.704Z,21.55
2024-05-09T20:54:28.796Z,21.70
2024-05-09T20:57:03.003Z,22.77
2024-05-09T20:59:30.591Z,22.95
2024-05-09T21:02:00.912Z,21.60
2024-05-09T21:04:28.618Z,21.77
2024-05-09T21:06:59.120Z,24.63
2024-05-09T21:09:26.889Z,22.58
2024-05-09T21:11:57.093Z,21.75
2024-05-09T21:14:27.453Z,22.90
2024-05-09T21:16:57.706Z,26.45
2024-05-09T21:19:27.965Z,27.83
2024-05-09T21:21:58.204Z,28.45
2024-05-09T21:24:30.352Z,29.20
2024-05-09T21:27:00.771Z,27.30
2024-05-09T21:29:30.900Z,27.10
2024-05-09T21:32:03.471Z,26.77
2024-05-09T21:34:31.206Z,24.27
2024-05-09T21:37:01.401Z,24.20
2024-05-09T21:39:33.804Z,25.83
2024-05-09T21:42:03.967Z,24.85
2024-05-09T21:44:36.588Z,22.88
2024-05-09T21:47:06.973Z,21.80
2024-05-09T21:49:34.839Z,23.67
2024-05-09T21:52:05.148Z,23.58
2024-05-09T21:54:35.306Z,18.92
2024-05-09T21:57:06.540Z,22.08
2024-05-09T21:59:36.781Z,24.55
2024-05-09T22:02:12.278Z,23.33
2024-05-09T22:04:40.112Z,20.85
2024-05-09T22:07:11.959Z,23.17
2024-05-09T22:09:45.380Z,21.17
2024-05-09T22:12:18.262Z,23.70
2024-05-09T22:14:48.498Z,22.20
2024-05-09T22:17:18.889Z,22.58
2024-05-09T22:19:48.881Z,24.83
2024-05-09T22:22:20.504Z,24.08
2024-05-09T22:24:50.623Z,22.17
2024-05-09T22:27:20.825Z,23.00
2024-05-09T22:29:50.971Z,21.90
2024-05-09T22:32:21.322Z,22.60
2024-05-09T22:34:49.020Z,24.20
2024-05-09T22:37:22.654Z,24.13
2024-05-09T22:39:50.288Z,22.02
2024-05-09T22:42:20.534Z,23.60
2024-05-09T22:44:48.099Z,23.05
2024-05-09T22:47:21.163Z,21.60
2024-05-09T22:49:48.769Z,21.02
2024-05-09T22:52:19.059Z,22.63
2024-05-09T22:54:49.029Z,23.95
2024-05-09T22:57:19.304Z,21.77
2024-05-09T22:59:46.940Z,23.27
2024-05-09T23:02:17.279Z,24.30
2024-05-09T23:04:48.260Z,24.83
2024-05-09T23:07:19.171Z,25.63
2024-05-09T23:09:46.780Z,26.20
2024-05-09T23:12:17.764Z,28.05
2024-05-09T23:14:45.436Z,26.33
2024-05-09T23:17:15.951Z,24.27
2024-05-09T23:19:43.557Z,25.48
2024-05-09T23:22:16.490Z,22.55
2024-05-09T23:24:44.095Z,26.88
2024-05-09T23:27:14.822Z,24.98
2024-05-09T23:29:42.910Z,29.15
2024-05-09T23:32:15.508Z,25.98
2024-05-09T23:34:43.324Z,24.83
2024-05-09T23:37:18.843Z,25.02
2024-05-09T23:39:46.647Z,25.63
2024-05-09T23:42:17.084Z,23.90
2024-05-09T23:44:46.987Z,26.75
2024-05-09T23:47:17.364Z,26.35
2024-05-09T23:49:44.947Z,30.95
2024-05-09T23:52:18.335Z,30.25
2024-05-09T23:54:50.987Z,26.45
2024-05-09T23:57:18.700Z,30.52
2024-05-09T23:59:48.929Z,28.83
